Time;durP1;ratioP1;P1;durP2;ratioP2;P2;SDS_P1;SDS_P2;PMS_P1;PMS_P2;Temp;Humidity;BMP_temperature;BMP_pressure;BME280_temperature;BME280_humidity;BME280_pressure;Samples;Min_cycle;Max_cycle;Signal;HPM_P1;HPM_P2
2021/05/20 00:00:56;;;;;;;0.00;0.00;;;10.70;99.90;;;;;;5050980;28;20191;-80
2021/05/20 00:03:22;;;;;;;0.00;0.00;;;10.70;99.90;;;;;;5053597;28;20205;-80
2021/05/20 00:05:48;;;;;;;0.00;0.00;;;10.70;99.90;;;;;;5052770;28;20276;-79
2021/05/20 00:08:14;;;;;;;0.10;0.10;;;10.70;99.90;;;;;;5046145;28;20307;-77
2021/05/20 00:10:39;;;;;;;0.10;0.10;;;10.80;99.90;;;;;;5049919;28;20185;-80
2021/05/20 00:13:05;;;;;;;0.10;0.10;;;10.80;99.90;;;;;;5047574;28;20178;-80
2021/05/20 00:15:30;;;;;;;0.10;0.10;;;10.80;99.90;;;;;;5048617;28;20218;-79
2021/05/20 00:17:56;;;;;;;0.13;0.13;;;10.80;99.90;;;;;;5050518;28;20667;-78
2021/05/20 00:20:22;;;;;;;0.10;0.10;;;10.80;99.90;;;;;;5048563;28;20186;-79
2021/05/20 00:22:47;;;;;;;0.10;0.10;;;10.80;99.90;;;;;;5043631;28;20236;-80
2021/05/20 00:25:13;;;;;;;0.10;0.10;;;10.80;99.90;;;;;;5050529;28;20207;-80
2021/05/20 00:27:38;;;;;;;0.10;0.10;;;10.90;99.90;;;;;;5049393;28;20205;-79
2021/05/20 00:30:10;;;;;;;0.10;0.10;;;10.90;99.90;;;;;;5048891;28;20193;-80
2021/05/20 00:32:36;;;;;;;0.03;0.03;;;10.80;99.90;;;;;;5051705;28;20177;-80
2021/05/20 00:35:02;;;;;;;0.10;0.10;;;10.60;99.90;;;;;;5050571;28;20181;-79
2021/05/20 00:37:28;;;;;;;0.10;0.10;;;10.60;99.90;;;;;;5048208;28;20263;-80
2021/05/20 00:39:53;;;;;;;0.10;0.10;;;10.60;99.90;;;;;;5050371;28;20190;-80
2021/05/20 00:42:19;;;;;;;0.10;0.10;;;10.40;99.90;;;;;;5040905;28;20231;-80
2021/05/20 00:44:54;;;;;;;0.00;0.00;;;10.40;99.90;;;;;;5040296;28;20644;-80
2021/05/20 00:47:29;;;;;;;0.00;0.00;;;10.60;99.90;;;;;;5043447;28;20549;-80
2021/05/20 00:49:55;;;;;;;0.00;0.00;;;10.80;99.90;;;;;;5043600;28;20177;-78
2021/05/20 00:52:22;;;;;;;0.10;0.10;;;11.00;99.90;;;;;;5040444;28;20208;-80
2021/05/20 00:54:50;;;;;;;0.27;0.27;;;11.10;99.90;;;;;;5047627;28;20188;-80
2021/05/20 00:57:17;;;;;;;0.00;0.00;;;11.10;99.90;;;;;;5043679;28;20205;-80
2021/05/20 00:59:43;;;;;;;0.03;0.03;;;11.20;99.90;;;;;;5040095;28;20194;-80
2021/05/20 01:02:12;;;;;;;0.00;0.00;;;11.30;99.90;;;;;;5045768;28;20227;-79
2021/05/20 01:04:38;;;;;;;0.00;0.00;;;11.30;99.90;;;;;;5061586;28;20210;-79
2021/05/20 01:07:04;;;;;;;0.10;0.10;;;11.40;99.90;;;;;;5052965;28;20333;-79
2021/05/20 01:09:33;;;;;;;0.10;0.10;;;11.50;99.90;;;;;;5055044;28;20226;-80
2021/05/20 01:12:00;;;;;;;0.10;0.10;;;11.60;99.90;;;;;;5053192;28;20170;-80
2021/05/20 01:14:26;;;;;;;0.10;0.10;;;11.60;99.90;;;;;;5044199;28;20188;-79
2021/05/20 01:16:51;;;;;;;0.00;0.00;;;11.70;99.90;;;;;;5054427;28;20666;-80
2021/05/20 01:19:17;;;;;;;0.07;0.07;;;11.70;99.90;;;;;;5053644;28;20188;-80
2021/05/20 01:21:43;;;;;;;0.10;0.10;;;11.70;99.90;;;;;;5050872;28;20201;-79
2021/05/20 01:24:12;;;;;;;0.10;0.10;;;11.70;99.90;;;;;;5053133;28;20204;-80
2021/05/20 01:26:39;;;;;;;0.10;0.10;;;11.70;99.90;;;;;;5051053;28;20205;-80
2021/05/20 01:29:06;;;;;;;0.10;0.10;;;11.80;99.90;;;;;;5053928;28;20687;-80
2021/05/20 01:31:32;;;;;;;0.00;0.00;;;11.70;99.90;;;;;;5050766;28;20638;-80
2021/05/20 01:33:58;;;;;;;0.00;0.00;;;11.70;99.90;;;;;;5053666;28;20299;-80
2021/05/20 01:36:28;;;;;;;0.10;0.10;;;11.80;99.90;;;;;;5050452;28;20657;-80
2021/05/20 01:38:58;;;;;;;0.00;0.00;;;11.50;99.90;;;;;;5050080;28;20247;-80
2021/05/20 01:41:23;;;;;;;0.10;0.10;;;11.50;99.90;;;;;;5045367;28;20562;-79
2021/05/20 01:43:49;;;;;;;0.00;0.00;;;11.50;99.90;;;;;;5039687;28;20200;-80
2021/05/20 01:46:15;;;;;;;0.10;0.10;;;11.40;99.90;;;;;;5044234;28;20188;-80
2021/05/20 01:48:42;;;;;;;0.03;0.03;;;11.40;99.90;;;;;;5049015;28;20182;-79
2021/05/20 01:51:17;;;;;;;0.77;0.20;;;11.50;99.90;;;;;;5050809;28;20216;-80
2021/05/20 01:53:45;;;;;;;0.00;0.00;;;11.40;99.90;;;;;;5047904;28;20196;-80
2021/05/20 01:56:13;;;;;;;0.10;0.10;;;11.40;99.90;;;;;;5047856;28;20192;-80
2021/05/20 01:58:38;;;;;;;0.10;0.10;;;11.50;99.90;;;;;;5051099;28;20178;-78
2021/05/20 02:01:05;;;;;;;0.10;0.10;;;11.50;99.90;;;;;;5052379;28;20563;-80
2021/05/20 02:03:31;;;;;;;0.23;0.10;;;11.50;99.90;;;;;;5050663;28;20255;-79
2021/05/20 02:05:58;;;;;;;0.00;0.00;;;11.50;99.90;;;;;;5051135;28;20651;-78
2021/05/20 02:08:24;;;;;;;0.10;0.10;;;11.40;99.90;;;;;;5049544;28;20202;-80
2021/05/20 02:10:50;;;;;;;0.10;0.10;;;11.00;99.90;;;;;;5053075;28;20181;-80
2021/05/20 02:13:16;;;;;;;0.03;0.03;;;10.90;99.90;;;;;;5045598;28;20192;-80
2021/05/20 02:15:42;;;;;;;0.20;0.20;;;10.90;99.90;;;;;;5051556;28;20186;-80
2021/05/20 02:18:07;;;;;;;0.10;0.10;;;11.00;99.90;;;;;;5049531;28;20267;-80
2021/05/20 02:20:35;;;;;;;0.00;0.00;;;11.10;99.90;;;;;;5051035;28;20185;-80
2021/05/20 02:23:01;;;;;;;0.20;0.20;;;11.30;99.90;;;;;;5042016;28;20672;-80
2021/05/20 02:25:27;;;;;;;0.10;0.10;;;11.40;99.90;;;;;;5049733;28;20265;-80
2021/05/20 02:27:52;;;;;;;0.13;0.13;;;11.50;99.90;;;;;;5057509;28;20201;-80
2021/05/20 02:30:19;;;;;;;0.10;0.10;;;11.50;99.90;;;;;;5042719;28;20186;-80
2021/05/20 02:32:45;;;;;;;0.10;0.10;;;11.60;99.90;;;;;;5048357;28;20615;-80
2021/05/20 02:35:11;;;;;;;0.10;0.10;;;11.60;99.90;;;;;;5051613;28;20193;-80
2021/05/20 02:37:37;;;;;;;0.03;0.03;;;11.60;99.90;;;;;;5051961;28;20742;-80
2021/05/20 02:40:05;;;;;;;0.10;0.10;;;11.50;99.90;;;;;;5047231;28;20220;-80
2021/05/20 02:42:30;;;;;;;0.00;0.00;;;11.10;99.90;;;;;;5047254;28;20186;-80
2021/05/20 02:44:56;;;;;;;0.10;0.10;;;11.20;99.90;;;;;;5047337;28;20212;-80
2021/05/20 02:47:21;;;;;;;0.00;0.00;;;11.30;99.90;;;;;;5045873;28;20201;-79
2021/05/20 02:49:47;;;;;;;0.10;0.10;;;11.10;99.90;;;;;;5047330;28;20646;-80
2021/05/20 02:52:13;;;;;;;0.27;0.27;;;10.90;99.90;;;;;;5052272;28;20217;-80
2021/05/20 02:54:40;;;;;;;0.13;0.13;;;11.10;99.90;;;;;;5041851;28;20183;-79
2021/05/20 02:57:05;;;;;;;1.70;0.50;;;11.30;99.90;;;;;;5051371;28;20630;-80
2021/05/20 02:59:31;;;;;;;0.10;0.10;;;11.40;99.90;;;;;;5051119;28;20199;-79
2021/05/20 03:02:04;;;;;;;0.03;0.03;;;11.50;99.90;;;;;;5051215;28;20189;-80
2021/05/20 03:04:31;;;;;;;0.07;0.07;;;11.50;99.90;;;;;;5051810;28;20205;-80
2021/05/20 03:06:57;;;;;;;0.10;0.10;;;11.60;99.90;;;;;;5048959;28;20658;-80
2021/05/20 03:09:23;;;;;;;0.00;0.00;;;11.60;99.90;;;;;;5051381;28;20593;-77
2021/05/20 03:11:48;;;;;;;0.10;0.10;;;11.60;99.90;;;;;;5050661;28;20273;-80
2021/05/20 03:14:14;;;;;;;0.10;0.10;;;11.70;99.90;;;;;;5051735;28;20691;-80
2021/05/20 03:16:39;;;;;;;0.10;0.10;;;11.70;99.90;;;;;;5049021;28;20616;-80
2021/05/20 03:19:05;;;;;;;0.10;0.10;;;11.50;99.90;;;;;;5050765;28;20192;-81
2021/05/20 03:21:30;;;;;;;0.30;0.30;;;11.40;99.90;;;;;;5045109;28;20193;-81
2021/05/20 03:23:57;;;;;;;0.10;0.10;;;11.50;99.90;;;;;;5051040;28;20259;-82
2021/05/20 03:26:23;;;;;;;0.10;0.10;;;11.60;99.90;;;;;;5045974;28;20203;-79
2021/05/20 03:28:49;;;;;;;0.20;0.20;;;11.60;99.90;;;;;;5039730;28;20190;-79
2021/05/20 03:31:14;;;;;;;0.23;0.23;;;11.60;99.90;;;;;;5048460;28;20185;-80
2021/05/20 03:33:41;;;;;;;0.20;0.20;;;11.70;99.90;;;;;;5042477;28;20193;-79
2021/05/20 03:36:06;;;;;;;0.10;0.10;;;11.70;99.90;;;;;;5046278;28;20232;-80
2021/05/20 03:38:32;;;;;;;0.10;0.10;;;11.60;99.90;;;;;;5048565;28;20626;-80
2021/05/20 03:41:00;;;;;;;0.10;0.10;;;11.60;99.90;;;;;;5050285;28;20197;-78
2021/05/20 03:43:26;;;;;;;0.10;0.10;;;11.70;99.90;;;;;;5046090;28;20206;-79
2021/05/20 03:45:51;;;;;;;0.10;0.10;;;11.70;99.90;;;;;;5040325;28;20184;-79
2021/05/20 03:48:17;;;;;;;0.10;0.10;;;11.70;99.90;;;;;;5043582;28;20204;-78
2021/05/20 03:50:43;;;;;;;0.10;0.10;;;11.60;99.90;;;;;;5038758;28;20192;-79
2021/05/20 03:53:08;;;;;;;0.10;0.10;;;11.40;99.90;;;;;;5037797;28;20192;-79
2021/05/20 03:55:34;;;;;;;0.27;0.27;;;11.50;99.90;;;;;;5039199;28;20192;-78
2021/05/20 03:57:59;;;;;;;0.20;0.20;;;11.40;99.90;;;;;;5047213;28;20201;-79
2021/05/20 04:00:25;;;;;;;0.10;0.10;;;11.20;99.90;;;;;;5045907;28;20185;-79
2021/05/20 04:02:51;;;;;;;0.10;0.10;;;11.20;99.90;;;;;;5046426;28;20189;-79
2021/05/20 04:05:16;;;;;;;0.10;0.10;;;11.40;99.90;;;;;;5043649;28;20213;-79
2021/05/20 04:07:42;;;;;;;0.07;0.07;;;11.40;99.90;;;;;;5041318;28;20292;-79
2021/05/20 04:10:09;;;;;;;0.10;0.10;;;11.40;99.90;;;;;;5046895;28;20189;-80
2021/05/20 04:12:34;;;;;;;0.10;0.10;;;11.50;99.90;;;;;;5038744;28;20182;-79
2021/05/20 04:15:00;;;;;;;0.87;0.20;;;11.60;99.90;;;;;;5043374;28;20193;-79
2021/05/20 04:17:25;;;;;;;3.23;3.03;;;11.80;99.90;;;;;;5044405;28;20292;-79
2021/05/20 04:19:51;;;;;;;0.10;0.10;;;11.80;99.90;;;;;;5047603;28;20197;-79
2021/05/20 04:22:16;;;;;;;1.30;0.23;;;11.80;99.90;;;;;;5044621;28;20197;-80
2021/05/20 04:24:42;;;;;;;3.13;0.30;;;11.60;99.90;;;;;;5047532;28;20197;-79
2021/05/20 04:27:08;;;;;;;0.10;0.10;;;11.70;99.90;;;;;;5048470;28;20206;-80
2021/05/20 04:29:33;;;;;;;0.10;0.10;;;11.70;99.90;;;;;;5046751;28;20184;-79
2021/05/20 04:31:59;;;;;;;0.87;0.27;;;11.80;99.90;;;;;;5048086;28;20193;-79
2021/05/20 04:34:24;;;;;;;0.10;0.10;;;11.70;99.90;;;;;;5050108;28;20189;-79
2021/05/20 04:36:50;;;;;;;0.10;0.10;;;11.80;99.90;;;;;;5052276;28;20738;-79
2021/05/20 04:39:15;;;;;;;0.17;0.17;;;11.80;99.90;;;;;;5051823;28;20548;-79
2021/05/20 04:41:42;;;;;;;0.10;0.10;;;11.90;99.90;;;;;;5042029;28;20184;-79
2021/05/20 04:44:08;;;;;;;0.10;0.10;;;11.90;99.90;;;;;;5048610;28;20216;-80
2021/05/20 04:46:33;;;;;;;0.20;0.20;;;11.90;99.90;;;;;;5037092;28;20201;-79
2021/05/20 04:48:59;;;;;;;0.10;0.10;;;11.80;99.90;;;;;;5052043;28;20206;-79
2021/05/20 04:51:24;;;;;;;0.10;0.10;;;11.70;99.90;;;;;;5051618;28;20209;-78
2021/05/20 04:53:50;;;;;;;0.33;0.20;;;11.80;99.90;;;;;;5050014;28;20194;-79
2021/05/20 04:56:22;;;;;;;0.10;0.10;;;11.80;99.90;;;;;;5047938;28;20191;-79
2021/05/20 04:58:48;;;;;;;0.10;0.10;;;11.50;99.90;;;;;;5043658;28;20203;-79
2021/05/20 05:01:14;;;;;;;0.20;0.20;;;11.50;99.90;;;;;;5046788;28;20548;-79
2021/05/20 05:03:39;;;;;;;0.20;0.20;;;11.70;99.90;;;;;;5046029;28;20212;-79
2021/05/20 05:06:05;;;;;;;0.40;0.40;;;11.80;99.90;;;;;;5046924;28;20184;-78
2021/05/20 05:08:31;;;;;;;0.33;0.20;;;11.60;99.90;;;;;;5051451;28;20247;-82
2021/05/20 05:10:56;;;;;;;0.20;0.20;;;11.50;99.90;;;;;;5045659;28;20427;-80
2021/05/20 05:13:22;;;;;;;0.57;0.30;;;11.50;99.90;;;;;;5054936;28;20648;-80
2021/05/20 05:15:47;;;;;;;0.40;0.40;;;11.40;99.90;;;;;;5056821;28;20260;-81
2021/05/20 05:18:13;;;;;;;0.20;0.20;;;11.70;99.90;;;;;;5054895;28;20213;-80
2021/05/20 05:20:39;;;;;;;0.50;0.47;;;11.50;99.90;;;;;;5049172;28;20190;-80
2021/05/20 05:23:05;;;;;;;0.37;0.37;;;11.70;99.90;;;;;;5053160;28;20272;-83
2021/05/20 05:25:30;;;;;;;0.30;0.30;;;11.60;99.90;;;;;;5051136;28;20653;-82
2021/05/20 05:27:56;;;;;;;0.70;0.53;;;11.50;99.90;;;;;;5048299;28;20248;-83
2021/05/20 05:30:22;;;;;;;0.10;0.10;;;11.80;99.90;;;;;;5046084;28;20204;-80
2021/05/20 05:32:48;;;;;;;0.30;0.30;;;12.00;99.90;;;;;;5053272;28;20185;-80
2021/05/20 05:35:13;;;;;;;0.20;0.20;;;12.10;99.90;;;;;;5045889;28;20676;-80
2021/05/20 05:37:39;;;;;;;0.20;0.20;;;12.20;99.90;;;;;;5053086;28;20866;-80
2021/05/20 05:40:06;;;;;;;0.30;0.30;;;12.20;99.90;;;;;;5055199;28;20238;-80
2021/05/20 05:42:32;;;;;;;0.20;0.20;;;12.40;99.90;;;;;;5050023;28;20196;-79
2021/05/20 05:44:57;;;;;;;0.40;0.30;;;12.30;99.90;;;;;;5050258;28;20209;-82
2021/05/20 05:47:23;;;;;;;0.17;0.17;;;12.40;99.90;;;;;;5049482;28;20206;-82
2021/05/20 05:49:51;;;;;;;0.30;0.30;;;12.40;99.90;;;;;;5042121;28;20178;-85
2021/05/20 05:52:20;;;;;;;0.30;0.30;;;12.10;99.90;;;;;;5041747;28;20186;-81
2021/05/20 05:54:45;;;;;;;0.30;0.30;;;12.30;99.90;;;;;;5047558;28;20175;-81
2021/05/20 05:57:11;;;;;;;0.60;0.50;;;12.60;99.90;;;;;;5044787;28;20202;-82
2021/05/20 05:59:37;;;;;;;0.20;0.20;;;12.50;99.90;;;;;;5045941;28;20182;-83
2021/05/20 06:02:02;;;;;;;0.30;0.20;;;12.60;99.90;;;;;;5049635;28;20587;-83
2021/05/20 06:04:30;;;;;;;0.33;0.33;;;12.80;99.90;;;;;;5046385;28;20677;-83
2021/05/20 06:06:57;;;;;;;0.63;0.30;;;12.60;99.90;;;;;;5051231;28;20217;-83
2021/05/20 06:09:23;;;;;;;0.20;0.20;;;12.90;99.90;;;;;;5045627;28;20614;-84
2021/05/20 06:11:48;;;;;;;0.40;0.40;;;13.10;99.90;;;;;;5048255;28;20265;-83
2021/05/20 06:14:15;;;;;;;0.20;0.20;;;13.20;99.90;;;;;;5048530;28;20217;-84
2021/05/20 06:16:41;;;;;;;0.20;0.20;;;13.00;99.90;;;;;;5046845;28;20693;-83
2021/05/20 06:19:08;;;;;;;0.77;0.30;;;13.10;99.90;;;;;;5049387;28;20210;-82
2021/05/20 06:21:35;;;;;;;0.17;0.17;;;13.20;99.90;;;;;;5044130;28;20194;-83
2021/05/20 06:24:00;;;;;;;0.20;0.20;;;13.20;99.90;;;;;;5045597;28;20198;-83
2021/05/20 06:26:27;;;;;;;0.67;0.37;;;13.20;99.90;;;;;;5046106;28;20240;-84
2021/05/20 06:28:53;;;;;;;0.30;0.30;;;13.30;99.90;;;;;;5047257;28;21545;-82
2021/05/20 06:31:19;;;;;;;0.23;0.23;;;13.40;99.90;;;;;;5046499;28;20179;-82
2021/05/20 06:33:44;;;;;;;0.27;0.20;;;13.40;99.90;;;;;;5046299;28;20193;-84
2021/05/20 06:36:11;;;;;;;0.30;0.30;;;13.40;99.90;;;;;;5047563;28;20216;-83
2021/05/20 06:38:36;;;;;;;0.60;0.30;;;13.40;99.90;;;;;;5045315;28;20202;-84
2021/05/20 06:41:05;;;;;;;0.30;0.30;;;13.20;99.90;;;;;;5043277;28;20341;-81
2021/05/20 06:43:31;;;;;;;0.20;0.20;;;13.40;99.90;;;;;;5043019;28;20813;-84
2021/05/20 06:45:56;;;;;;;0.40;0.40;;;13.60;99.90;;;;;;5045473;28;20189;-83
2021/05/20 06:48:22;;;;;;;0.50;0.50;;;13.30;99.90;;;;;;5050328;28;20198;-83
2021/05/20 06:50:47;;;;;;;0.50;0.50;;;13.40;99.90;;;;;;5048481;28;20228;-83
2021/05/20 06:53:22;;;;;;;1.00;0.90;;;13.40;99.90;;;;;;5050068;28;20577;-83
2021/05/20 06:55:48;;;;;;;0.30;0.30;;;12.60;99.90;;;;;;5048100;28;20173;-81
2021/05/20 07:00:57;;;;;;;1.80;0.80;;;13.30;99.90;;;;;;5049848;28;20187;-83
2021/05/20 07:03:23;;;;;;;0.20;0.20;;;13.40;99.90;;;;;;5051462;28;20182;-82
2021/05/20 07:05:50;;;;;;;0.90;0.80;;;13.90;99.90;;;;;;5047487;28;20192;-81
2021/05/20 07:08:15;;;;;;;0.30;0.30;;;13.60;99.90;;;;;;5050873;28;20597;-83
2021/05/20 07:10:41;;;;;;;0.30;0.30;;;14.00;99.90;;;;;;5051315;28;20267;-85
2021/05/20 07:13:06;;;;;;;0.33;0.33;;;14.00;99.90;;;;;;5050258;28;20602;-85
2021/05/20 07:15:32;;;;;;;0.37;0.37;;;14.20;99.90;;;;;;5048282;28;20184;-82
2021/05/20 07:17:58;;;;;;;1.00;0.80;;;14.70;99.90;;;;;;5051845;28;20261;-82
2021/05/20 07:20:24;;;;;;;0.50;0.50;;;14.90;99.90;;;;;;5050010;28;20275;-82
2021/05/20 07:22:49;;;;;;;1.47;1.37;;;14.50;99.90;;;;;;5052379;28;20214;-84
2021/05/20 07:25:15;;;;;;;0.37;0.37;;;13.80;99.90;;;;;;5048927;28;20245;-81
2021/05/20 07:27:41;;;;;;;1.03;0.77;;;14.10;99.90;;;;;;5057220;28;20209;-81
2021/05/20 07:30:07;;;;;;;0.60;0.50;;;14.00;99.90;;;;;;5056681;28;20237;-79
2021/05/20 07:32:32;;;;;;;0.53;0.53;;;14.40;99.90;;;;;;5050996;28;20185;-80
2021/05/20 07:34:58;;;;;;;0.30;0.30;;;14.40;99.90;;;;;;5052038;28;20278;-80
2021/05/20 07:37:24;;;;;;;0.97;0.97;;;14.10;99.90;;;;;;5052954;28;20309;-81
2021/05/20 07:39:49;;;;;;;2.10;0.90;;;14.50;99.90;;;;;;5049054;28;20736;-81
2021/05/20 07:42:15;;;;;;;0.30;0.30;;;14.90;99.90;;;;;;5051788;28;20248;-80
2021/05/20 07:44:40;;;;;;;0.50;0.50;;;15.40;99.90;;;;;;5050420;28;20572;-81
2021/05/20 07:47:06;;;;;;;0.50;0.50;;;14.50;99.90;;;;;;5060958;28;20221;-81
2021/05/20 07:49:36;;;;;;;1.40;0.50;;;14.80;99.90;;;;;;5053975;28;20190;-81
2021/05/20 07:52:02;;;;;;;0.37;0.37;;;14.30;99.90;;;;;;5053063;28;20182;-81
2021/05/20 07:54:27;;;;;;;0.20;0.20;;;14.00;99.90;;;;;;5050456;28;20194;-81
2021/05/20 07:56:53;;;;;;;0.80;0.63;;;14.10;99.90;;;;;;5048171;28;20210;-80
2021/05/20 07:59:18;;;;;;;0.30;0.30;;;14.10;99.90;;;;;;5046615;28;20264;-80
2021/05/20 08:01:54;;;;;;;2.20;0.80;;;14.60;99.90;;;;;;5048162;28;20222;-80
2021/05/20 08:04:22;;;;;;;0.30;0.30;;;14.80;99.90;;;;;;5054305;28;20682;-80
2021/05/20 08:06:54;;;;;;;0.30;0.30;;;15.40;99.90;;;;;;5049210;28;20206;-80
2021/05/20 08:09:33;;;;;;;0.60;0.60;;;15.20;99.90;;;;;;5053737;28;20179;-79
2021/05/20 08:11:58;;;;;;;0.30;0.30;;;15.00;99.90;;;;;;5049399;28;20184;-80
2021/05/20 08:14:24;;;;;;;0.20;0.20;;;14.70;99.90;;;;;;5048395;28;20185;-79
2021/05/20 08:16:50;;;;;;;0.50;0.33;;;14.90;99.90;;;;;;5052635;28;20281;-80
2021/05/20 08:19:15;;;;;;;0.20;0.20;;;15.10;99.90;;;;;;5053446;28;20193;-80
2021/05/20 08:21:42;;;;;;;0.27;0.27;;;15.30;99.90;;;;;;5047683;28;20724;-81
2021/05/20 08:24:09;;;;;;;0.57;0.57;;;15.50;99.90;;;;;;5044420;28;20661;-80
2021/05/20 08:26:35;;;;;;;0.30;0.30;;;15.50;99.90;;;;;;5042322;28;20258;-79
2021/05/20 08:29:00;;;;;;;1.07;0.93;;;15.60;99.90;;;;;;5046788;28;20607;-78
2021/05/20 08:31:26;;;;;;;1.47;1.37;;;15.60;99.90;;;;;;5045991;28;20181;-81
2021/05/20 08:33:52;;;;;;;0.70;0.60;;;15.50;99.90;;;;;;5047372;28;20196;-81
2021/05/20 08:36:18;;;;;;;0.60;0.60;;;15.50;99.90;;;;;;5046697;28;20258;-78
2021/05/20 08:38:44;;;;;;;0.53;0.53;;;15.80;99.90;;;;;;5044049;28;20291;-78
2021/05/20 08:41:09;;;;;;;0.73;0.70;;;16.00;99.90;;;;;;5051587;28;20192;-79
2021/05/20 08:43:35;;;;;;;0.57;0.50;;;16.50;99.90;;;;;;5047999;28;20220;-79
2021/05/20 08:46:01;;;;;;;1.67;0.37;;;17.00;99.90;;;;;;5052703;28;20564;-79
2021/05/20 08:48:27;;;;;;;0.80;0.60;;;17.30;99.90;;;;;;5050819;28;20269;-79
2021/05/20 08:50:53;;;;;;;0.53;0.43;;;17.80;99.90;;;;;;5054262;28;20257;-79
2021/05/20 08:53:18;;;;;;;0.40;0.40;;;18.10;99.90;;;;;;5048030;28;20652;-79
2021/05/20 08:55:44;;;;;;;0.67;0.47;;;18.70;99.90;;;;;;5048500;28;20188;-78
2021/05/20 08:58:10;;;;;;;0.40;0.40;;;18.90;99.90;;;;;;5046109;28;20696;-79
2021/05/20 09:00:38;;;;;;;0.73;0.63;;;18.90;99.90;;;;;;5049197;28;20189;-79
2021/05/20 09:03:05;;;;;;;0.63;0.60;;;18.70;99.90;;;;;;5052004;28;20189;-80
2021/05/20 09:05:30;;;;;;;0.43;0.43;;;18.40;99.90;;;;;;5052545;28;22338;-81
2021/05/20 09:07:57;;;;;;;0.43;0.43;;;18.30;99.90;;;;;;5055678;28;20248;-80
2021/05/20 09:10:26;;;;;;;0.97;0.97;;;17.80;99.90;;;;;;5057370;28;20270;-80
2021/05/20 09:13:00;;;;;;;0.70;0.47;;;17.40;99.90;;;;;;5056487;28;20185;-82
2021/05/20 09:15:30;;;;;;;0.40;0.40;;;17.40;99.90;;;;;;5068169;28;20177;-82
2021/05/20 09:18:15;;;;;;;6.47;0.90;;;17.40;99.90;;;;;;5057468;28;20203;-82
2021/05/20 09:20:46;;;;;;;0.10;0.10;;;17.40;99.90;;;;;;5059027;28;20232;-81
2021/05/20 09:23:17;;;;;;;0.73;0.70;;;17.30;99.90;;;;;;5053132;28;20193;-81
2021/05/20 09:25:45;;;;;;;0.70;0.53;;;17.20;99.90;;;;;;5057556;28;20193;-80
2021/05/20 09:28:12;;;;;;;0.60;0.60;;;17.10;99.90;;;;;;5049595;28;20217;-82
2021/05/20 09:30:41;;;;;;;0.20;0.20;;;16.80;99.90;;;;;;5053497;28;20249;-80
2021/05/20 09:33:10;;;;;;;0.67;0.53;;;17.00;99.90;;;;;;5062728;28;20611;-80
2021/05/20 09:35:49;;;;;;;0.33;0.30;;;17.40;99.90;;;;;;5040433;28;20253;-81
2021/05/20 09:38:22;;;;;;;0.30;0.30;;;17.80;99.90;;;;;;5052464;28;20334;-81
2021/05/20 09:41:02;;;;;;;0.37;0.37;;;18.00;99.90;;;;;;5049884;28;20185;-81
2021/05/20 09:43:31;;;;;;;0.57;0.57;;;17.70;99.90;;;;;;5047346;28;20211;-81
2021/05/20 09:46:02;;;;;;;0.60;0.50;;;17.90;99.90;;;;;;5051602;28;20191;-82
2021/05/20 09:48:34;;;;;;;0.57;0.50;;;17.80;99.90;;;;;;5050512;28;20307;-81
2021/05/20 09:51:01;;;;;;;0.67;0.67;;;17.90;99.90;;;;;;5054252;28;20190;-80
2021/05/20 09:53:28;;;;;;;1.47;0.50;;;17.90;99.90;;;;;;5070551;28;20213;-81
2021/05/20 09:55:59;;;;;;;0.30;0.30;;;18.00;99.90;;;;;;5060511;28;20239;-80
2021/05/20 09:58:26;;;;;;;0.80;0.80;;;18.20;99.90;;;;;;5057521;28;20694;-79
2021/05/20 10:00:56;;;;;;;0.30;0.30;;;18.40;99.90;;;;;;5061126;28;20570;-81
2021/05/20 10:03:23;;;;;;;0.37;0.37;;;18.90;99.90;;;;;;5055365;28;20186;-80
2021/05/20 10:05:53;;;;;;;0.40;0.40;;;19.40;99.90;;;;;;5051051;28;20185;-79
2021/05/20 10:08:24;;;;;;;0.40;0.40;;;19.70;99.90;;;;;;5053373;28;20197;-81
2021/05/20 10:10:52;;;;;;;0.30;0.30;;;19.90;99.90;;;;;;5052707;28;20311;-79
2021/05/20 10:13:25;;;;;;;0.57;0.57;;;19.90;99.90;;;;;;5056138;28;20239;-80
2021/05/20 10:15:51;;;;;;;0.47;0.47;;;19.80;99.90;;;;;;5044127;28;20181;-80
2021/05/20 10:18:22;;;;;;;0.00;0.00;;;20.20;99.90;;;;;;5051047;28;20269;-82
2021/05/20 10:20:50;;;;;;;0.30;0.30;;;20.00;99.90;;;;;;5051890;28;20723;-80
2021/05/20 10:23:17;;;;;;;0.57;0.57;;;19.90;99.90;;;;;;5043939;28;20653;-81
2021/05/20 10:25:45;;;;;;;1.20;0.83;;;19.90;99.90;;;;;;5042886;28;20443;-81
2021/05/20 10:28:13;;;;;;;0.30;0.30;;;19.80;99.90;;;;;;5047985;28;20209;-79
2021/05/20 10:30:41;;;;;;;0.10;0.10;;;20.00;99.90;;;;;;5047354;28;20204;-81
2021/05/20 10:33:07;;;;;;;0.33;0.33;;;20.30;99.90;;;;;;5051233;28;20182;-80
2021/05/20 10:35:46;;;;;;;1.37;0.40;;;20.70;99.90;;;;;;5043452;28;20548;-81
2021/05/20 10:38:35;;;;;;;0.20;0.20;;;21.30;99.90;;;;;;5054232;28;20272;-80
2021/05/20 10:41:09;;;;;;;0.40;0.40;;;21.20;99.90;;;;;;5061300;28;20656;-80
2021/05/20 10:43:36;;;;;;;0.37;0.37;;;21.50;99.90;;;;;;5047773;28;20299;-81
2021/05/20 10:46:04;;;;;;;1.40;0.50;;;21.60;99.90;;;;;;5046528;28;20182;-81
2021/05/20 10:48:31;;;;;;;3.23;0.53;;;21.80;99.90;;;;;;5056632;28;20256;-81
2021/05/20 10:51:21;;;;;;;0.23;0.23;;;21.40;99.90;;;;;;5055709;28;20178;-81
2021/05/20 10:53:56;;;;;;;0.20;0.20;;;21.70;99.90;;;;;;5053462;28;20185;-80
2021/05/20 10:56:21;;;;;;;0.30;0.30;;;22.10;99.90;;;;;;5059923;28;20719;-81
2021/05/20 10:58:48;;;;;;;1.03;0.67;;;22.30;99.90;;;;;;5056385;28;20178;-80
2021/05/20 11:01:19;;;;;;;0.20;0.20;;;22.10;99.90;;;;;;5053460;28;20320;-82
2021/05/20 11:03:49;;;;;;;0.30;0.20;;;21.90;99.90;;;;;;5047385;28;20214;-79
2021/05/20 11:06:16;;;;;;;0.40;0.40;;;22.10;99.90;;;;;;5066279;28;20178;-80
2021/05/20 11:08:42;;;;;;;0.30;0.30;;;22.00;99.90;;;;;;5055330;28;20189;-79
2021/05/20 11:11:31;;;;;;;5.10;0.43;;;22.10;99.90;;;;;;5061923;28;20181;-80
2021/05/20 11:14:00;;;;;;;0.10;0.10;;;22.20;99.90;;;;;;5055875;28;20529;-81
2021/05/20 11:16:36;;;;;;;0.47;0.47;;;22.10;99.90;;;;;;5051521;28;20186;-80
2021/05/20 11:19:29;;;;;;;0.57;0.57;;;22.30;99.90;;;;;;5047848;28;20185;-79
2021/05/20 11:22:01;;;;;;;0.50;0.50;;;22.00;99.90;;;;;;5054693;28;20205;-80
2021/05/20 11:25:03;;;;;;;0.20;0.20;;;21.80;99.90;;;;;;5048007;28;20202;-79
2021/05/20 11:27:29;;;;;;;0.20;0.20;;;21.70;99.90;;;;;;5045748;28;20201;-79
2021/05/20 11:29:54;;;;;;;0.20;0.20;;;22.00;99.90;;;;;;5062972;28;20189;-80
2021/05/20 11:37:26;;;;;;;0.50;0.50;;;21.00;99.90;;;;;;5044226;28;20197;-80
2021/05/20 11:39:51;;;;;;;0.93;0.27;;;21.00;99.90;;;;;;5049905;28;20185;-79
2021/05/20 11:42:27;;;;;;;1.13;0.70;;;21.00;99.90;;;;;;5039919;28;20685;-82
2021/05/20 11:44:56;;;;;;;0.20;0.20;;;20.80;99.90;;;;;;5049123;28;20232;-82
2021/05/20 11:47:23;;;;;;;0.20;0.20;;;20.80;99.90;;;;;;5047398;28;20193;-78
2021/05/20 11:49:49;;;;;;;0.20;0.20;;;20.70;99.90;;;;;;5057063;28;20200;-78
2021/05/20 11:52:17;;;;;;;0.43;0.43;;;20.70;99.90;;;;;;5048059;28;20217;-79
2021/05/20 11:54:46;;;;;;;0.40;0.40;;;20.80;99.90;;;;;;5042183;28;20229;-79
2021/05/20 11:57:12;;;;;;;1.30;0.80;;;20.60;99.90;;;;;;5053761;28;20689;-80
2021/05/20 11:59:42;;;;;;;0.20;0.20;;;20.30;99.90;;;;;;5043854;28;20197;-80
2021/05/20 12:02:08;;;;;;;0.23;0.23;;;19.80;99.90;;;;;;5047761;28;20181;-80
2021/05/20 12:04:35;;;;;;;0.30;0.30;;;19.40;99.90;;;;;;5057748;28;20205;-79
2021/05/20 12:07:02;;;;;;;0.90;0.47;;;19.10;99.90;;;;;;5048710;28;20296;-80
2021/05/20 12:09:28;;;;;;;0.20;0.20;;;19.10;99.90;;;;;;5053657;28;20177;-79
2021/05/20 12:11:54;;;;;;;0.20;0.20;;;19.10;99.90;;;;;;5041880;28;20190;-79
2021/05/20 12:14:30;;;;;;;0.17;0.17;;;19.40;99.90;;;;;;5052144;28;20227;-80
2021/05/20 12:17:14;;;;;;;0.20;0.20;;;19.70;99.90;;;;;;5061313;28;20199;-80
2021/05/20 12:19:40;;;;;;;0.20;0.20;;;19.90;99.90;;;;;;5054840;28;20554;-80
2021/05/20 12:22:19;;;;;;;0.17;0.17;;;19.70;99.90;;;;;;5046535;28;20194;-80
2021/05/20 12:24:49;;;;;;;0.23;0.20;;;19.70;99.90;;;;;;5051525;28;20229;-80
2021/05/20 12:27:19;;;;;;;0.20;0.20;;;20.00;99.90;;;;;;5048883;28;20281;-80
2021/05/20 12:29:47;;;;;;;0.10;0.10;;;20.10;99.90;;;;;;5045752;28;20182;-81
2021/05/20 12:32:34;;;;;;;0.43;0.43;;;20.30;99.90;;;;;;5049465;28;20178;-80
2021/05/20 12:35:11;;;;;;;0.20;0.20;;;20.20;99.90;;;;;;5048880;28;20186;-81
2021/05/20 12:37:46;;;;;;;0.30;0.30;;;20.40;99.90;;;;;;5054720;28;20265;-81
2021/05/20 12:40:19;;;;;;;0.10;0.10;;;20.10;99.90;;;;;;5059876;28;20676;-79
2021/05/20 12:43:28;;;;;;;0.20;0.20;;;19.90;99.90;;;;;;5053276;28;20190;-79
2021/05/20 12:45:58;;;;;;;0.30;0.27;;;19.80;99.90;;;;;;5050481;28;20182;-80
2021/05/20 12:48:35;;;;;;;0.10;0.10;;;20.30;99.90;;;;;;5054644;28;20225;-80
2021/05/20 12:51:14;;;;;;;0.30;0.30;;;20.40;99.90;;;;;;5054472;28;20697;-81
2021/05/20 12:53:43;;;;;;;0.10;0.10;;;20.00;99.90;;;;;;5048819;28;20182;-81
2021/05/20 12:56:20;;;;;;;0.20;0.20;;;19.80;99.90;;;;;;5055678;28;20191;-79
2021/05/20 12:58:54;;;;;;;0.17;0.17;;;19.80;99.90;;;;;;5054938;28;20190;-79